createdAt,value
2023-04-20T00:01:34.031Z,4.23
2023-04-20T00:04:01.373Z,5.07
2023-04-20T00:06:32.894Z,5.17
2023-04-20T00:08:59.937Z,4.90
2023-04-20T00:11:27.745Z,4.80
2023-04-20T00:13:54.717Z,4.70
2023-04-20T00:16:21.732Z,5.40
2023-04-20T00:18:48.971Z,5.63
2023-04-20T00:21:16.750Z,4.80
2023-04-20T00:23:43.760Z,5.03
2023-04-20T00:26:10.808Z,4.67
2023-04-20T00:28:37.773Z,5.07
2023-04-20T00:31:04.825Z,5.27
2023-04-20T00:33:31.968Z,5.73
2023-04-20T00:35:58.981Z,5.27
2023-04-20T00:38:25.991Z,5.70
2023-04-20T00:40:54.098Z,5.27
2023-04-20T00:43:21.466Z,5.60
2023-04-20T00:45:48.518Z,5.60
2023-04-20T00:48:15.971Z,5.83
2023-04-20T00:50:42.963Z,5.07
2023-04-20T00:53:10.040Z,5.67
2023-04-20T00:55:37.949Z,5.30
2023-04-20T00:58:05.060Z,5.60
2023-04-20T01:00:32.901Z,5.30
2023-04-20T01:02:59.989Z,5.47
2023-04-20T01:05:27.193Z,5.23
2023-04-20T01:07:54.170Z,5.17
2023-04-20T01:10:21.681Z,5.10
2023-04-20T01:12:48.800Z,5.53
2023-04-20T01:15:15.970Z,5.10
2023-04-20T01:17:43.556Z,5.37
2023-04-20T01:20:12.453Z,5.17
2023-04-20T01:22:46.450Z,5.90
2023-04-20T01:25:13.463Z,5.23
2023-04-20T01:27:40.479Z,6.37
2023-04-20T01:30:07.803Z,5.93
2023-04-20T01:32:35.133Z,5.40
2023-04-20T01:35:02.549Z,6.07
2023-04-20T01:37:29.803Z,6.13
2023-04-20T01:39:56.989Z,5.63
2023-04-20T01:42:24.241Z,6.30
2023-04-20T01:44:51.274Z,6.00
2023-04-20T01:47:18.875Z,5.10
2023-04-20T01:49:46.137Z,6.17
2023-04-20T01:52:13.121Z,5.93
2023-04-20T01:54:40.305Z,6.47
2023-04-20T01:57:07.323Z,6.53
2023-04-20T01:59:34.366Z,5.77
2023-04-20T02:02:01.648Z,6.87
2023-04-20T02:04:28.744Z,6.17
2023-04-20T02:06:55.716Z,6.17
2023-04-20T02:09:22.805Z,6.27
2023-04-20T02:11:49.819Z,6.40
2023-04-20T02:14:16.805Z,6.63
2023-04-20T02:16:43.837Z,6.30
2023-04-20T02:19:10.981Z,7.20
2023-04-20T02:21:37.995Z,6.47
2023-04-20T02:24:06.309Z,7.00
2023-04-20T02:26:33.295Z,6.20
2023-04-20T02:29:00.428Z,6.27
2023-04-20T02:31:27.585Z,6.17
2023-04-20T02:33:54.654Z,5.70
2023-04-20T02:36:21.654Z,6.67
2023-04-20T02:38:48.657Z,6.50
2023-04-20T02:41:15.634Z,5.70
2023-04-20T02:43:42.611Z,5.73
2023-04-20T02:46:09.743Z,6.13
2023-04-20T02:48:36.749Z,5.70
2023-04-20T02:51:03.778Z,6.10
2023-04-20T02:53:30.813Z,6.30
2023-04-20T02:55:57.779Z,6.07
2023-04-20T02:58:25.434Z,6.00
2023-04-20T03:00:52.562Z,6.63
2023-04-20T03:03:21.185Z,6.37
2023-04-20T03:05:48.362Z,6.50
2023-04-20T03:08:15.329Z,6.60
2023-04-20T03:10:42.304Z,6.40
2023-04-20T03:13:09.319Z,6.43
2023-04-20T03:15:36.303Z,6.80
2023-04-20T03:18:03.892Z,6.73
2023-04-20T03:20:32.019Z,6.30
2023-04-20T03:22:59.035Z,7.00
2023-04-20T03:25:26.381Z,6.93
2023-04-20T03:27:53.415Z,7.00
2023-04-20T03:30:20.536Z,7.50
2023-04-20T03:32:47.586Z,6.43
2023-04-20T03:35:14.583Z,6.67
2023-04-20T03:37:41.578Z,6.70
2023-04-20T03:40:09.366Z,7.33
2023-04-20T03:42:37.565Z,6.60
2023-04-20T03:45:05.669Z,6.23
2023-04-20T03:47:32.719Z,6.30
2023-04-20T03:49:59.745Z,6.60
2023-04-20T03:52:26.742Z,6.87
2023-04-20T03:54:53.753Z,6.80
2023-04-20T03:57:20.928Z,6.67
2023-04-20T03:59:47.907Z,7.40
2023-04-20T04:02:15.722Z,6.77
2023-04-20T04:04:43.469Z,8.17
2023-04-20T04:07:10.539Z,6.73
2023-04-20T04:09:37.532Z,8.03
2023-04-20T04:12:04.948Z,7.17
2023-04-20T04:14:31.975Z,7.77
2023-04-20T04:16:59.056Z,7.90
2023-04-20T04:19:26.142Z,7.50
2023-04-20T04:21:53.444Z,7.70
2023-04-20T04:24:21.461Z,7.50
2023-04-20T04:26:48.612Z,7.07
2023-04-20T04:29:16.051Z,7.10
2023-04-20T04:31:43.159Z,7.50
2023-04-20T04:34:10.774Z,6.97
2023-04-20T04:36:37.858Z,7.30
2023-04-20T04:39:04.829Z,7.60
2023-04-20T04:41:31.797Z,8.07
2023-04-20T04:43:59.488Z,9.43
2023-04-20T04:46:27.573Z,8.73
2023-04-20T04:48:56.430Z,9.77
2023-04-20T04:51:23.410Z,9.67
2023-04-20T04:53:50.677Z,8.80
2023-04-20T04:56:20.391Z,8.70
2023-04-20T04:58:47.338Z,8.67
2023-04-20T05:01:14.535Z,8.27
2023-04-20T05:03:41.681Z,8.67
2023-04-20T05:06:08.817Z,7.97
2023-04-20T05:08:35.833Z,7.93
2023-04-20T05:11:02.823Z,7.80
2023-04-20T05:13:29.869Z,8.27
2023-04-20T05:15:56.881Z,7.63
2023-04-20T05:18:23.981Z,7.07
2023-04-20T05:20:51.319Z,8.20
2023-04-20T05:23:18.336Z,9.33
2023-04-20T05:25:45.482Z,8.60
2023-04-20T05:28:12.484Z,9.57
2023-04-20T05:30:39.489Z,7.80
2023-04-20T05:33:06.575Z,7.70
2023-04-20T05:35:33.754Z,8.63
2023-04-20T05:38:02.516Z,7.83
2023-04-20T05:40:29.505Z,8.07
2023-04-20T05:42:56.515Z,7.10
2023-04-20T05:45:23.704Z,8.07
2023-04-20T05:47:54.373Z,8.10
2023-04-20T05:50:21.748Z,8.27
2023-04-20T05:52:48.859Z,7.90
2023-04-20T05:55:18.456Z,8.00
2023-04-20T05:57:46.443Z,9.33
2023-04-20T06:00:15.200Z,7.17
2023-04-20T06:02:43.322Z,8.30
2023-04-20T06:05:11.090Z,8.00
2023-04-20T06:07:38.397Z,7.33
2023-04-20T06:10:06.336Z,7.50
2023-04-20T06:12:32.928Z,7.73
2023-04-20T06:14:59.864Z,7.43
2023-04-20T06:17:26.857Z,7.27
2023-04-20T06:19:53.732Z,7.67
2023-04-20T06:22:20.999Z,8.00
2023-04-20T06:24:47.804Z,8.33
2023-04-20T06:27:14.390Z,7.67
2023-04-20T06:29:40.964Z,8.10
2023-04-20T06:32:07.512Z,8.90
2023-04-20T06:34:34.066Z,7.57
2023-04-20T06:37:00.604Z,8.33
2023-04-20T06:39:27.172Z,7.90
2023-04-20T06:41:53.683Z,9.05
2023-04-20T06:44:20.321Z,8.43
2023-04-20T06:46:46.964Z,8.17
2023-04-20T06:49:13.651Z,8.00
2023-04-20T06:51:40.596Z,7.80
2023-04-20T06:54:07.235Z,7.17
2023-04-20T06:56:35.448Z,8.17
2023-04-20T06:59:02.603Z,7.80
2023-04-20T07:01:29.308Z,7.50
2023-04-20T07:03:56.014Z,7.43
2023-04-20T07:06:22.649Z,7.50
2023-04-20T07:08:49.232Z,6.83
2023-04-20T07:11:15.802Z,6.93
2023-04-20T07:13:42.376Z,5.50
2023-04-20T07:16:10.167Z,7.13
2023-04-20T07:18:36.801Z,7.17
2023-04-20T07:21:03.553Z,6.43
2023-04-20T07:23:30.165Z,7.07
2023-04-20T07:25:56.730Z,6.87
2023-04-20T07:28:23.306Z,6.47
2023-04-20T07:30:49.904Z,7.13
2023-04-20T07:33:16.541Z,6.80
2023-04-20T07:35:43.139Z,7.63
2023-04-20T07:38:10.267Z,7.13
2023-04-20T07:40:36.816Z,6.90
2023-04-20T07:43:03.478Z,7.10
2023-04-20T07:45:30.235Z,7.47
2023-04-20T07:47:57.401Z,6.77
2023-04-20T07:50:24.163Z,7.40
2023-04-20T07:52:50.819Z,6.73
2023-04-20T07:55:17.483Z,7.57
2023-04-20T07:57:44.682Z,7.27
2023-04-20T08:00:12.842Z,7.27
2023-04-20T08:02:39.664Z,7.10
2023-04-20T08:05:06.874Z,7.43
2023-04-20T08:07:33.579Z,7.80
2023-04-20T08:10:02.788Z,7.23
2023-04-20T08:12:29.388Z,7.33
2023-04-20T08:15:00.457Z,7.53
2023-04-20T08:17:27.668Z,7.90
2023-04-20T08:19:54.262Z,7.90
2023-04-20T08:22:20.992Z,8.17
2023-04-20T08:24:50.313Z,7.23
2023-04-20T08:27:17.328Z,7.73
2023-04-20T08:29:44.316Z,7.90
2023-04-20T08:32:12.475Z,7.40
2023-04-20T08:34:39.710Z,7.07
2023-04-20T08:37:06.919Z,7.50
2023-04-20T08:39:34.143Z,7.33
2023-04-20T08:42:02.076Z,7.53
2023-04-20T08:44:29.139Z,7.43
2023-04-20T08:46:56.307Z,8.13
2023-04-20T08:49:23.657Z,7.60
2023-04-20T08:51:51.435Z,8.13
2023-04-20T08:54:18.560Z,8.50
2023-04-20T08:56:46.446Z,8.37
2023-04-20T08:59:14.144Z,8.33
2023-04-20T09:01:42.377Z,8.37
2023-04-20T09:04:19.332Z,9.00
2023-04-20T09:06:50.017Z,7.87
2023-04-20T09:09:16.926Z,9.30
2023-04-20T09:11:43.633Z,9.60
2023-04-20T09:14:13.673Z,8.10
2023-04-20T09:17:01.675Z,8.33
2023-04-20T09:19:30.315Z,8.60
2023-04-20T09:22:00.313Z,7.97
2023-04-20T09:24:32.576Z,7.70
2023-04-20T09:26:59.779Z,8.80
2023-04-20T09:29:26.467Z,8.20
2023-04-20T09:31:53.250Z,7.90
2023-04-20T09:34:20.434Z,8.07
2023-04-20T09:36:52.321Z,8.60
2023-04-20T09:39:23.576Z,8.50
2023-04-20T09:41:51.992Z,8.03
2023-04-20T09:44:19.993Z,8.17
2023-04-20T09:46:46.909Z,8.07
2023-04-20T09:49:14.658Z,8.40
2023-04-20T09:51:45.720Z,7.67
2023-04-20T09:54:13.754Z,8.10
2023-04-20T09:56:41.146Z,7.67
2023-04-20T09:59:08.499Z,8.17
2023-04-20T10:01:36.190Z,7.83
2023-04-20T10:04:07.269Z,7.47
2023-04-20T10:06:35.787Z,7.00
2023-04-20T10:09:06.273Z,8.13
2023-04-20T10:11:49.094Z,7.63
2023-04-20T10:14:26.112Z,7.77
2023-04-20T10:17:00.857Z,8.50
2023-04-20T10:19:44.387Z,7.60
2023-04-20T10:22:13.782Z,9.20
2023-04-20T10:24:41.131Z,8.33
2023-04-20T10:27:21.534Z,7.77
2023-04-20T10:29:48.994Z,8.37
2023-04-20T10:32:25.823Z,7.83
2023-04-20T10:35:06.782Z,7.97
2023-04-20T10:37:34.042Z,7.77
2023-04-20T10:40:01.440Z,8.13
2023-04-20T10:42:29.577Z,7.33
2023-04-20T10:44:56.761Z,7.80
2023-04-20T10:47:30.796Z,7.90
2023-04-20T10:50:13.683Z,7.50
2023-04-20T10:52:41.863Z,9.23
2023-04-20T10:55:22.394Z,8.20
2023-04-20T10:57:49.935Z,8.80
2023-04-20T11:00:20.378Z,9.57
2023-04-20T11:02:52.773Z,8.50
2023-04-20T11:05:20.895Z,7.80
2023-04-20T11:07:58.506Z,7.23
2023-04-20T11:10:37.265Z,7.73
2023-04-20T11:13:04.266Z,6.80
2023-04-20T11:15:32.220Z,6.37
2023-04-20T11:18:07.686Z,6.67
2023-04-20T11:20:34.795Z,6.23
2023-04-20T11:23:01.879Z,6.57
2023-04-20T11:25:28.959Z,6.30
2023-04-20T11:28:06.409Z,6.83
2023-04-20T11:30:43.092Z,7.65
2023-04-20T11:33:10.517Z,7.70
2023-04-20T11:35:42.314Z,8.15
2023-04-20T11:38:09.087Z,7.97
2023-04-20T11:40:36.390Z,8.37
2023-04-20T11:43:04.512Z,8.40
2023-04-20T11:45:36.757Z,7.77
2023-04-20T11:48:04.896Z,7.70
2023-04-20T11:50:31.714Z,8.17
2023-04-20T11:52:58.386Z,8.70
2023-04-20T11:55:24.977Z,8.50
2023-04-20T11:57:51.505Z,9.23
2023-04-20T12:00:19.225Z,8.87
2023-04-20T12:02:45.928Z,9.13
2023-04-20T12:05:12.700Z,9.93
2023-04-20T12:07:39.467Z,9.60
2023-04-20T12:10:07.810Z,9.23
2023-04-20T12:12:34.393Z,9.83
2023-04-20T12:15:00.944Z,10.38
2023-04-20T12:17:27.562Z,9.33
2023-04-20T12:19:54.349Z,9.27
2023-04-20T12:22:20.973Z,9.67
2023-04-20T12:24:47.549Z,9.60
2023-04-20T12:27:14.123Z,9.30
2023-04-20T12:29:40.929Z,9.50
2023-04-20T12:32:07.589Z,9.80
2023-04-20T12:34:34.135Z,9.33
2023-04-20T12:37:01.009Z,9.50
2023-04-20T12:39:27.588Z,9.07
2023-04-20T12:41:54.177Z,8.63
2023-04-20T12:44:20.868Z,9.00
2023-04-20T12:46:47.929Z,9.13
2023-04-20T12:49:14.562Z,9.25
2023-04-20T12:51:41.232Z,8.73
2023-04-20T12:54:08.364Z,9.37
2023-04-20T12:56:34.999Z,9.03
2023-04-20T12:59:01.551Z,9.13
2023-04-20T13:01:28.235Z,8.23
2023-04-20T13:03:56.050Z,9.63
2023-04-20T13:06:22.962Z,9.50
2023-04-20T13:08:50.877Z,8.90
2023-04-20T13:11:18.203Z,9.10
2023-04-20T13:13:45.801Z,9.07
2023-04-20T13:16:12.819Z,8.03
2023-04-20T13:18:39.859Z,9.13
2023-04-20T13:21:06.962Z,8.53
2023-04-20T13:23:33.930Z,8.40
2023-04-20T13:26:01.662Z,8.80
2023-04-20T13:28:28.763Z,9.70
2023-04-20T13:30:57.412Z,8.50
2023-04-20T13:33:24.502Z,8.50
2023-04-20T13:35:51.538Z,8.27
2023-04-20T13:38:18.603Z,7.27
2023-04-20T13:40:46.334Z,6.90
2023-04-20T13:43:13.310Z,6.60
2023-04-20T13:45:40.471Z,6.57
2023-04-20T13:48:07.557Z,6.73
2023-04-20T13:50:34.712Z,6.60
2023-04-20T13:53:03.008Z,6.30
2023-04-20T13:55:30.466Z,6.67
2023-04-20T13:57:57.504Z,10.53
2023-04-20T14:00:26.022Z,7.47
2023-04-20T14:02:53.236Z,7.45
2023-04-20T14:05:20.401Z,6.17
2023-04-20T14:07:47.384Z,6.73
2023-04-20T14:10:14.463Z,7.57
2023-04-20T14:12:41.468Z,6.67
2023-04-20T14:15:08.686Z,6.87
2023-04-20T14:17:35.734Z,7.07
2023-04-20T14:20:04.088Z,7.20
2023-04-20T14:22:35.750Z,7.53
2023-04-20T14:25:04.163Z,7.40
2023-04-20T14:27:31.484Z,7.50
2023-04-20T14:29:58.547Z,7.00
2023-04-20T14:32:25.626Z,7.77
2023-04-20T14:34:52.683Z,7.23
2023-04-20T14:37:19.684Z,7.63
2023-04-20T14:39:46.980Z,7.50
2023-04-20T14:42:14.221Z,7.67
2023-04-20T14:44:41.317Z,7.47
2023-04-20T14:47:08.360Z,7.90
2023-04-20T14:49:35.509Z,7.47
2023-04-20T14:52:02.697Z,7.80
2023-04-20T14:54:30.268Z,7.37
2023-04-20T14:56:57.381Z,7.80
2023-04-20T14:59:26.228Z,7.70
2023-04-20T15:02:02.187Z,7.30
2023-04-20T15:04:29.935Z,7.53
2023-04-20T15:06:57.131Z,7.10
2023-04-20T15:09:24.252Z,7.27
2023-04-20T15:11:51.217Z,7.50
2023-04-20T15:14:21.458Z,7.60
2023-04-20T15:16:51.836Z,7.80
2023-04-20T15:19:18.956Z,7.73
2023-04-20T15:21:46.070Z,8.07
2023-04-20T15:24:13.092Z,7.53
2023-04-20T15:26:40.194Z,8.30
2023-04-20T15:29:07.201Z,7.60
2023-04-20T15:31:34.248Z,7.83
2023-04-20T15:34:01.317Z,8.67
2023-04-20T15:36:28.507Z,8.53
2023-04-20T15:38:57.695Z,7.77
2023-04-20T15:41:25.182Z,8.87
2023-04-20T15:43:52.171Z,9.50
2023-04-20T15:46:23.099Z,8.40
2023-04-20T15:48:50.233Z,8.70
2023-04-20T15:51:20.029Z,9.60
2023-04-20T15:53:50.837Z,9.07
2023-04-20T15:56:18.713Z,10.20
2023-04-20T15:58:46.302Z,9.57
2023-04-20T16:01:13.313Z,10.23
2023-04-20T16:03:41.898Z,9.70
2023-04-20T16:06:10.282Z,9.83
2023-04-20T16:08:37.719Z,10.83
2023-04-20T16:11:05.181Z,10.97
2023-04-20T16:13:32.263Z,11.43
2023-04-20T16:15:59.416Z,11.43
2023-04-20T16:18:26.550Z,11.70
2023-04-20T16:20:53.909Z,11.07
2023-04-20T16:23:20.993Z,11.37
2023-04-20T16:25:47.986Z,11.75
2023-04-20T16:28:14.987Z,11.60
2023-04-20T16:30:41.975Z,11.53
2023-04-20T16:33:09.171Z,11.73
2023-04-20T16:35:36.267Z,11.07
2023-04-20T16:38:03.275Z,11.13
2023-04-20T16:40:30.890Z,9.90
2023-04-20T16:42:57.927Z,10.93
2023-04-20T16:45:24.900Z,11.40
2023-04-20T16:47:51.973Z,11.30
2023-04-20T16:50:20.339Z,10.50
2023-04-20T16:52:47.851Z,10.43
2023-04-20T16:55:14.906Z,11.00
2023-04-20T16:57:42.192Z,11.70
2023-04-20T17:00:10.646Z,11.73
2023-04-20T17:02:38.026Z,11.83
2023-04-20T17:05:06.013Z,11.40
2023-04-20T17:07:33.011Z,10.73
2023-04-20T17:10:00.801Z,12.25
2023-04-20T17:12:27.808Z,11.47
2023-04-20T17:14:55.820Z,12.40
2023-04-20T17:17:23.046Z,11.90
2023-04-20T17:19:50.257Z,12.17
2023-04-20T17:22:17.278Z,12.33
2023-04-20T17:24:44.298Z,13.30
2023-04-20T17:27:11.329Z,13.93
2023-04-20T17:29:38.490Z,13.53
2023-04-20T17:32:06.126Z,13.73
2023-04-20T17:34:33.305Z,14.10
2023-04-20T17:37:00.316Z,14.53
2023-04-20T17:39:27.413Z,13.83
2023-04-20T17:41:54.426Z,13.43
2023-04-20T17:44:21.431Z,14.53
2023-04-20T17:46:51.212Z,13.67
2023-04-20T17:49:18.184Z,15.70
2023-04-20T17:51:45.231Z,15.40
2023-04-20T17:54:12.288Z,15.50
2023-04-20T17:56:39.651Z,14.80
2023-04-20T17:59:07.083Z,14.70
2023-04-20T18:01:35.700Z,13.50
2023-04-20T18:04:03.529Z,14.10
2023-04-20T18:06:31.485Z,12.43
2023-04-20T18:08:59.146Z,12.83
2023-04-20T18:11:26.199Z,12.90
2023-04-20T18:13:53.294Z,12.83
2023-04-20T18:16:20.548Z,13.43
2023-04-20T18:18:47.590Z,13.17
2023-04-20T18:21:15.010Z,14.17
2023-04-20T18:23:42.132Z,13.83
2023-04-20T18:26:17.203Z,15.75
2023-04-20T18:28:45.000Z,13.77
2023-04-20T18:31:12.280Z,13.93
2023-04-20T18:33:39.580Z,14.13
2023-04-20T18:36:06.918Z,13.47
2023-04-20T18:38:35.121Z,14.87
2023-04-20T18:41:02.296Z,14.23
2023-04-20T18:43:29.374Z,14.20
2023-04-20T18:45:56.333Z,14.47
2023-04-20T18:48:23.290Z,14.33
2023-04-20T18:50:50.365Z,14.80
2023-04-20T18:53:17.451Z,15.03
2023-04-20T18:55:44.524Z,15.23
2023-04-20T18:58:11.519Z,15.70
2023-04-20T19:00:38.673Z,17.50
2023-04-20T19:03:06.288Z,15.37
2023-04-20T19:05:33.615Z,15.27
2023-04-20T19:08:00.792Z,13.87
2023-04-20T19:10:27.825Z,15.20
2023-04-20T19:12:55.682Z,14.43
2023-04-20T19:15:25.934Z,14.97
2023-04-20T19:17:53.803Z,14.90
2023-04-20T19:20:20.849Z,15.67
2023-04-20T19:22:47.870Z,14.10
2023-04-20T19:25:14.918Z,14.37
2023-04-20T19:27:42.036Z,14.90
2023-04-20T19:30:09.784Z,15.30
2023-04-20T19:32:36.828Z,14.83
2023-04-20T19:35:04.078Z,14.97
2023-04-20T19:37:31.317Z,14.60
2023-04-20T19:39:58.355Z,18.58
2023-04-20T19:42:25.448Z,16.10
2023-04-20T19:44:53.510Z,15.27
2023-04-20T19:47:20.754Z,16.30
2023-04-20T19:49:47.964Z,16.63
2023-04-20T19:52:14.950Z,17.80
2023-04-20T19:54:42.056Z,16.97
2023-04-20T19:57:09.159Z,16.77
2023-04-20T19:59:38.305Z,16.67
2023-04-20T20:02:05.560Z,16.60
2023-04-20T20:04:33.509Z,17.87
2023-04-20T20:07:00.799Z,18.80
2023-04-20T20:09:27.788Z,18.50
2023-04-20T20:11:54.732Z,17.77
2023-04-20T20:14:21.973Z,20.77
2023-04-20T20:16:49.032Z,18.77
2023-04-20T20:19:17.992Z,19.10
2023-04-20T20:21:45.323Z,17.30
2023-04-20T20:24:12.912Z,17.33
2023-04-20T20:26:40.298Z,20.13
2023-04-20T20:29:07.355Z,19.83
2023-04-20T20:31:34.407Z,20.13
2023-04-20T20:34:01.458Z,19.53
2023-04-20T20:36:32.081Z,20.27
2023-04-20T20:39:00.294Z,60.83
2023-04-20T20:41:27.954Z,27.43
2023-04-20T20:43:55.158Z,41.43
2023-04-20T20:46:22.437Z,20.00
2023-04-20T20:48:49.508Z,21.30
2023-04-20T20:51:16.764Z,20.27
2023-04-20T20:53:44.142Z,22.30
2023-04-20T20:56:11.149Z,23.67
2023-04-20T20:58:38.192Z,31.60
2023-04-20T21:01:05.528Z,19.70
2023-04-20T21:03:32.931Z,20.73
2023-04-20T21:06:00.117Z,20.13
2023-04-20T21:08:27.127Z,19.73
2023-04-20T21:10:54.176Z,20.30
2023-04-20T21:13:21.937Z,21.03
2023-04-20T21:15:51.057Z,21.60
2023-04-20T21:18:50.687Z,20.50
2023-04-20T21:21:24.900Z,21.83
2023-04-20T21:23:54.552Z,23.85
2023-04-20T21:26:22.660Z,20.83
2023-04-20T21:28:49.297Z,23.55
2023-04-20T21:31:17.056Z,20.10
2023-04-20T21:33:43.920Z,20.10
2023-04-20T21:36:10.494Z,19.07
2023-04-20T21:38:37.011Z,19.40
2023-04-20T21:41:03.798Z,19.70
2023-04-20T21:43:30.353Z,20.23
2023-04-20T21:45:56.970Z,20.60
2023-04-20T21:48:23.601Z,20.13
2023-04-20T21:50:50.161Z,29.23
2023-04-20T21:53:18.202Z,29.07
2023-04-20T21:55:44.865Z,22.57
2023-04-20T21:58:11.487Z,22.40
2023-04-20T22:00:38.293Z,23.83
2023-04-20T22:03:05.132Z,24.27
2023-04-20T22:05:32.019Z,30.57
2023-04-20T22:07:58.536Z,40.97
2023-04-20T22:10:26.137Z,33.20
2023-04-20T22:12:52.713Z,26.77
2023-04-20T22:15:22.063Z,26.83
2023-04-20T22:17:49.012Z,28.00
2023-04-20T22:20:16.965Z,29.07
2023-04-20T22:22:43.510Z,29.33
2023-04-20T22:25:10.190Z,28.87
2023-04-20T22:27:37.761Z,29.67
2023-04-20T22:30:06.023Z,30.50
2023-04-20T22:32:32.664Z,31.73
2023-04-20T22:34:59.304Z,29.30
2023-04-20T22:37:25.967Z,30.17
2023-04-20T22:39:52.572Z,33.57
2023-04-20T22:42:19.178Z,30.60
2023-04-20T22:44:45.822Z,33.50
2023-04-20T22:47:12.412Z,31.87
2023-04-20T22:49:39.107Z,33.03
2023-04-20T22:52:05.765Z,34.57
2023-04-20T22:54:32.367Z,32.77
2023-04-20T22:56:58.917Z,33.13
2023-04-20T22:59:25.481Z,33.93
2023-04-20T23:01:52.240Z,33.90
2023-04-20T23:04:18.954Z,34.80
2023-04-20T23:06:45.503Z,32.00
2023-04-20T23:09:13.168Z,30.23
2023-04-20T23:11:40.410Z,32.40
2023-04-20T23:14:08.108Z,31.40
2023-04-20T23:16:35.459Z,31.87
2023-04-20T23:19:02.208Z,33.57
2023-04-20T23:21:28.874Z,32.97
2023-04-20T23:23:58.449Z,34.47
2023-04-20T23:26:25.185Z,34.53
2023-04-20T23:28:53.190Z,33.23
2023-04-20T23:31:20.538Z,34.07
2023-04-20T23:33:47.815Z,35.00
2023-04-20T23:36:15.029Z,32.50
2023-04-20T23:38:41.735Z,36.27
2023-04-20T23:41:12.752Z,35.10
2023-04-20T23:43:40.056Z,36.87
2023-04-20T23:46:07.756Z,34.80
2023-04-20T23:48:34.807Z,35.80
2023-04-20T23:51:01.958Z,34.00
2023-04-20T23:53:28.640Z,34.43
2023-04-20T23:55:55.611Z,36.93
2023-04-20T23:58:26.487Z,38.40
